FW4402 Weather Reports


Display with metric or nautical units.
time (UTC)temp
F
wind
direction
speed
MPH
gust
MPH
rain 1hr
in
rain 24hr
in
rain mn
in
humidity
%
barometer
mb
20190326083020 58 50 0.0 5.0 0.00 0.00 0.00 73 1022.0
20190326081641 58 51 2.0 6.0 0.00 0.00 0.00 72 1022.1
20190326080057 58 49 1.0 6.0 0.00 0.00 0.00 71 1022.0
20190326074518 58 48 3.0 6.0 0.00 0.00 0.00 71 1022.0
20190326071609 59 51 0.0 5.0 0.00 0.00 0.00 70 1022.1
20190326070028 58 51 0.0 4.0 0.00 0.00 0.00 72 1022.1
20190326063133 58 51 0.0 2.0 0.00 0.00 0.00 70 1021.9
20190326061621 59 51 0.0 2.0 0.00 0.00 0.00 68 1021.8
20190326054559 59 51 0.0 2.0 0.00 0.00 0.00 68 1021.7
20190326053053 58 51 0.0 4.0 0.00 0.00 0.00 68 1021.7
20190326050108 57 51 0.0 0.0 0.00 0.00 0.00 71 1021.7
20190326044539 59 51 0.0 0.0 0.00 0.00 0.00 68 1021.6
20190326043204 60 51 0.0 2.0 0.00 0.00 0.00 65 1021.3
20190326041557 62 51 0.0 0.0 0.00 0.00 0.00 61 1021.3
20190326040008 63 51 0.0 2.0 0.00 0.00 0.00 58 1021.0
20190326034644 64 51 0.0 6.0 0.00 0.00 0.00 57 1020.8
20190326033150 64 50 2.0 9.0 0.00 0.00 0.00 58 1020.7
20190326031503 62 52 0.0 5.0 0.00 0.00 0.00 62 1020.5
20190326030132 62 53 0.0 0.0 0.00 0.00 0.00 62 1020.3
20190326024544 63 52 0.0 0.0 0.00 0.00 0.00 60 1020.1
20190326021628 66 52 0.0 0.0 0.00 0.00 0.00 54 1019.6
20190326014641 68 53 0.0 3.0 0.00 0.00 0.00 49 1019.3
20190326013038 69 53 0.0 4.0 0.00 0.00 0.00 47 1019.1
20190326010240 71 47 4.0 9.0 0.00 0.00 0.00 45 1018.8
20190326004548 72 53 1.0 5.0 0.00 0.00 0.00 43 1018.7
20190326001645 74 41 4.0 11.0 0.00 0.00 0.00 40 1018.4
20190326000206 75 40 3.0 10.0 0.00 0.00 0.00 38 1018.2
20190325234516 77 34 6.0 11.0 0.00 0.00 0.00 36 1018.1
20190325233131 77 37 5.0 12.0 0.00 0.00 0.00 36 1018.0
20190325231601 78 44 5.0 13.0 0.00 0.00 0.00 37 1017.9
20190325230020 79 53 5.0 11.0 0.00 0.00 0.00 37 1017.8
20190325224749 79 36 4.0 11.0 0.00 0.00 0.00 38 1017.6
20190325223041 80 53 4.0 10.0 0.00 0.00 0.00 40 1017.5
20190325221512 80 52 4.0 15.0 0.00 0.00 0.00 40 1017.5
20190325220135 80 111 3.0 13.0 0.00 0.00 0.00 40 1017.5
20190325214722 79 29 8.0 14.0 0.00 0.00 0.00 41 1017.6
20190325213025 80 45 5.0 15.0 0.00 0.00 0.00 44 1017.4
20190325211719 79 32 5.0 11.0 0.00 0.00 0.00 50 1017.4
20190325210120 78 38 7.0 13.0 0.00 0.00 0.00 52 1017.5
20190325204509 78 28 9.0 15.0 0.00 0.00 0.00 53 1017.5
20190325203154 78 31 6.0 15.0 0.00 0.00 0.00 55 1017.7
20190325201610 78 67 4.0 13.0 0.00 0.00 0.00 58 1017.7
20190325200016 77 48 4.0 11.0 0.00 0.00 0.00 61 1017.8
20190325194631 77 48 5.0 11.0 0.00 0.00 0.00 60 1017.9
20190325193116 76 52 6.0 13.0 0.00 0.00 0.00 61 1018.0
20190325191515 77 52 3.0 10.0 0.00 0.00 0.00 61 1017.9
20190325190208 77 51 6.0 12.0 0.00 0.00 0.00 62 1018.0
20190325184652 77 49 5.0 13.0 0.00 0.00 0.00 63 1018.2
20190325183105 77 47 5.0 15.0 0.00 0.00 0.00 64 1018.3
20190325180132 77 44 2.0 12.0 0.00 0.00 0.00 64 1018.4
20190325174521 77 46 3.0 13.0 0.00 0.00 0.00 65 1018.4
20190325173203 77 35 2.0 11.0 0.00 0.00 0.00 66 1018.4
20190325171605 76 331 2.0 10.0 0.00 0.00 0.00 69 1018.5
20190325170015 75 40 0.0 9.0 0.00 0.00 0.00 75 1018.5
20190325164747 75 49 4.0 10.0 0.00 0.00 0.00 75 1018.5
20190325163021 74 52 5.0 13.0 0.00 0.00 0.00 77 1018.6
20190325160057 72 40 2.0 10.0 0.00 0.00 0.00 83 1018.8
20190325154515 71 37 3.0 8.0 0.00 0.00 0.00 86 1018.7
20190325153159 69 61 0.0 2.0 0.00 0.00 0.00 89 1018.6
20190325151538 69 98 0.0 4.0 0.00 0.00 0.00 91 1018.5
20190325150148 69 207 0.0 2.0 0.00 0.00 0.00 92 1018.3
20190325144555 68 207 0.0 4.0 0.00 0.00 0.00 92 1018.2
20190325143057 68 207 0.0 0.0 0.00 0.00 0.00 92 1018.0
20190325141649 68 207 0.0 0.0 0.00 0.00 0.00 93 1017.7
20190325140053 68 207 0.0 0.0 0.00 0.00 0.00 92 1017.6
20190325133145 67 207 0.0 0.0 0.00 0.00 0.00 92 1017.2
20190325131504 67 207 0.0 0.0 0.00 0.00 0.00 91 1016.9
20190325130113 67 207 0.0 0.0 0.00 0.00 0.00 91 1016.4
20190325124546 68 207 0.0 2.0 0.00 0.00 0.00 91 1016.2
20190325121703 68 207 0.0 3.0 0.00 0.00 0.00 90 1015.8
20190325120109 68 206 1.0 5.0 0.00 0.00 0.00 90 1015.6
20190325114512 68 207 1.0 7.0 0.00 0.00 0.00 90 1015.3
20190325113226 68 207 2.0 6.0 0.00 0.00 0.00 90 1015.1
20190325111625 68 193 2.0 9.0 0.00 0.00 0.00 90 1015.0
20190325110101 68 227 2.0 9.0 0.00 0.00 0.00 89 1014.9
20190325103243 68 201 1.0 7.0 0.00 0.00 0.00 89 1014.9
20190325101545 68 196 2.0 8.0 0.00 0.00 0.00 90 1014.7
20190325100029 68 188 3.0 8.0 0.00 0.00 0.00 90 1014.7
20190325093128 68 180 2.0 6.0 0.00 0.00 0.00 89 1014.8
20190325091542 68 200 4.0 10.0 0.00 0.00 0.00 89 1014.7
20190325084627 68 157 6.0 14.0 0.00 0.00 0.00 88 1014.9